createdAt,value
2023-01-13T00:00:03.468Z,100366.90
2023-01-13T00:02:38.873Z,100370.83
2023-01-13T00:05:06.451Z,100376.48
2023-01-13T00:07:33.483Z,100381.63
2023-01-13T00:10:00.612Z,100380.58
2023-01-13T00:12:27.820Z,100377.97
2023-01-13T00:14:54.822Z,100378.52
2023-01-13T00:17:22.807Z,100378.13
2023-01-13T00:19:50.149Z,100382.90
2023-01-13T00:22:17.210Z,100388.69
2023-01-13T00:24:44.332Z,100390.35
2023-01-13T00:27:11.425Z,100392.73
2023-01-13T00:29:38.540Z,100390.00
2023-01-13T00:32:05.588Z,100386.45
2023-01-13T00:34:32.693Z,100381.83
2023-01-13T00:36:59.685Z,100375.78
2023-01-13T00:39:26.783Z,100381.44
2023-01-13T00:42:12.313Z,100379.02
2023-01-13T00:44:39.402Z,100375.52
2023-01-13T00:47:06.413Z,100374.36
2023-01-13T00:49:33.532Z,100370.48
2023-01-13T00:52:00.622Z,100364.91
2023-01-13T00:54:27.610Z,100363.90
2023-01-13T00:56:54.734Z,100364.11
2023-01-13T00:59:21.837Z,100366.80
2023-01-13T01:01:49.116Z,100361.75
2023-01-13T01:04:16.453Z,100358.88
2023-01-13T01:06:43.609Z,100362.02
2023-01-13T01:09:15.514Z,100352.88
2023-01-13T01:11:42.856Z,100348.89
2023-01-13T01:14:11.462Z,100349.05
2023-01-13T01:16:38.704Z,100342.60
2023-01-13T01:19:06.136Z,100341.23
2023-01-13T01:21:33.453Z,100335.27
2023-01-13T01:24:01.571Z,100334.91
2023-01-13T01:26:29.303Z,100331.80
2023-01-13T01:28:56.385Z,100329.98
2023-01-13T01:31:28.266Z,100334.98
2023-01-13T01:33:55.721Z,100333.38
2023-01-13T01:36:23.592Z,100336.27
2023-01-13T01:38:50.578Z,100336.07
2023-01-13T01:41:20.025Z,100330.67
2023-01-13T01:44:00.292Z,100332.33
2023-01-13T01:46:38.849Z,100328.39
2023-01-13T01:49:05.896Z,100324.75
2023-01-13T01:51:38.407Z,100325.71
2023-01-13T01:54:06.176Z,100326.38
2023-01-13T01:56:33.946Z,100330.39
2023-01-13T01:59:01.105Z,100328.39
2023-01-13T02:01:28.463Z,100325.11
2023-01-13T02:04:02.044Z,100325.31
2023-01-13T02:06:29.348Z,100322.13
2023-01-13T02:08:57.077Z,100316.10
2023-01-13T02:11:52.881Z,100311.90
2023-01-13T02:14:23.959Z,100312.52
2023-01-13T02:17:16.593Z,100311.42
2023-01-13T02:20:11.302Z,100309.35
2023-01-13T02:22:56.575Z,100306.30
2023-01-13T02:25:23.565Z,100305.95
2023-01-13T02:28:18.451Z,100302.24
2023-01-13T02:31:23.960Z,100300.64
2023-01-13T02:34:01.899Z,100295.04
2023-01-13T02:36:56.324Z,100291.45
2023-01-13T02:39:41.939Z,100293.00
2023-01-13T02:42:29.515Z,100295.05
2023-01-13T02:45:21.622Z,100298.85
2023-01-13T02:47:50.264Z,100296.70
2023-01-13T02:50:20.913Z,100297.68
2023-01-13T02:53:01.678Z,100287.82
2023-01-13T02:55:37.654Z,100287.48
2023-01-13T02:58:06.083Z,100280.42
2023-01-13T03:00:33.538Z,100279.79
2023-01-13T03:03:01.611Z,100281.73
2023-01-13T03:05:28.710Z,100279.16
2023-01-13T03:08:15.605Z,100281.88
2023-01-13T03:11:01.543Z,100282.92
2023-01-13T03:13:56.815Z,100287.05
2023-01-13T03:16:47.351Z,100290.80
2023-01-13T03:19:35.288Z,100293.15
2023-01-13T03:22:11.695Z,100292.64
2023-01-13T03:24:56.791Z,100289.29
2023-01-13T03:27:32.401Z,100286.74
2023-01-13T03:30:03.878Z,100283.11
2023-01-13T03:32:35.065Z,100282.31
2023-01-13T03:35:09.970Z,100280.20
2023-01-13T03:37:39.894Z,100285.05
2023-01-13T03:40:10.338Z,100283.83
2023-01-13T03:42:37.748Z,100284.54
2023-01-13T03:45:13.156Z,100285.66
2023-01-13T03:47:45.793Z,100281.64
2023-01-13T03:50:19.638Z,100284.95
2023-01-13T03:52:49.208Z,100290.33
2023-01-13T03:55:21.167Z,100286.64
2023-01-13T03:57:59.678Z,100280.38
2023-01-13T04:00:30.096Z,100280.84
2023-01-13T04:03:00.356Z,100280.13
2023-01-13T04:05:27.237Z,100283.25
2023-01-13T04:08:16.936Z,100278.33
2023-01-13T04:11:22.703Z,100276.14
2023-01-13T04:13:49.857Z,100276.45
2023-01-13T04:16:16.835Z,100274.77
2023-01-13T04:18:43.773Z,100275.45
2023-01-13T04:21:10.783Z,100269.80
2023-01-13T04:23:37.786Z,100275.50
2023-01-13T04:26:04.784Z,100275.13
2023-01-13T04:28:33.460Z,100274.79
2023-01-13T04:31:00.958Z,100278.55
2023-01-13T04:33:28.243Z,100278.66
2023-01-13T04:35:55.322Z,100280.98
2023-01-13T04:38:22.632Z,100277.70
2023-01-13T04:40:49.707Z,100280.95
2023-01-13T04:43:16.840Z,100278.56
2023-01-13T04:45:43.907Z,100282.58
2023-01-13T04:48:11.100Z,100279.33
2023-01-13T04:50:38.147Z,100284.44
2023-01-13T04:53:05.784Z,100282.39
2023-01-13T04:55:32.794Z,100285.55
2023-01-13T04:58:06.751Z,100285.92
2023-01-13T05:00:34.767Z,100288.58
2023-01-13T05:03:01.846Z,100288.36
2023-01-13T05:05:29.247Z,100293.55
2023-01-13T05:07:56.139Z,100295.25
2023-01-13T05:10:24.087Z,100296.46
2023-01-13T05:13:09.605Z,100295.30
2023-01-13T05:15:55.215Z,100298.35
2023-01-13T05:18:22.269Z,100298.95
2023-01-13T05:20:49.917Z,100297.73
2023-01-13T05:23:35.468Z,100296.32
2023-01-13T05:26:02.424Z,100292.88
2023-01-13T05:28:33.361Z,100289.71
2023-01-13T05:31:01.174Z,100285.13
2023-01-13T05:33:28.273Z,100289.91
2023-01-13T05:35:55.303Z,100291.20
2023-01-13T05:38:22.271Z,100296.09
2023-01-13T05:41:07.708Z,100292.90
2023-01-13T05:43:34.948Z,100291.70
2023-01-13T05:46:07.969Z,100290.66
2023-01-13T05:48:40.126Z,100294.92
2023-01-13T05:51:11.479Z,100296.56
2023-01-13T05:53:40.679Z,100297.73
2023-01-13T05:56:08.308Z,100296.83
2023-01-13T05:58:35.444Z,100293.63
2023-01-13T06:01:03.998Z,100293.96
2023-01-13T06:03:31.006Z,100298.13
2023-01-13T06:06:02.138Z,100300.73
2023-01-13T06:08:29.519Z,100297.88
2023-01-13T06:10:56.531Z,100302.80
2023-01-13T06:13:25.305Z,100304.66
2023-01-13T06:15:55.722Z,100311.52
2023-01-13T06:18:24.076Z,100316.48
2023-01-13T06:20:51.037Z,100311.05
2023-01-13T06:23:19.105Z,100315.01
2023-01-13T06:25:55.246Z,100314.50
2023-01-13T06:28:22.185Z,100317.00
2023-01-13T06:30:49.970Z,100316.06
2023-01-13T06:33:19.766Z,100316.94
2023-01-13T06:35:50.548Z,100316.05
2023-01-13T06:38:17.576Z,100320.17
2023-01-13T06:40:44.649Z,100317.98
2023-01-13T06:43:17.699Z,100317.73
2023-01-13T06:45:47.416Z,100315.64
2023-01-13T06:48:14.785Z,100315.95
2023-01-13T06:50:42.333Z,100317.38
2023-01-13T06:53:10.074Z,100315.48
2023-01-13T06:55:37.265Z,100319.73
2023-01-13T06:58:04.193Z,100319.77
2023-01-13T07:00:32.634Z,100318.02
2023-01-13T07:03:13.807Z,100313.16
2023-01-13T07:05:43.129Z,100316.08
2023-01-13T07:08:10.310Z,100314.15
2023-01-13T07:10:37.531Z,100317.29
2023-01-13T07:13:23.541Z,100322.14
2023-01-13T07:15:57.524Z,100327.64
2023-01-13T07:18:24.641Z,100334.80
2023-01-13T07:20:53.467Z,100337.77
2023-01-13T07:23:20.538Z,100339.34
2023-01-13T07:25:47.501Z,100344.33
2023-01-13T07:28:14.512Z,100344.40
2023-01-13T07:30:41.453Z,100339.24
2023-01-13T07:33:08.384Z,100329.15
2023-01-13T07:35:35.583Z,100332.48
2023-01-13T07:38:02.580Z,100330.45
2023-01-13T07:40:29.563Z,100332.52
2023-01-13T07:43:15.078Z,100327.40
2023-01-13T07:45:42.098Z,100323.13
2023-01-13T07:48:09.085Z,100322.58
2023-01-13T07:50:36.040Z,100318.38
2023-01-13T07:53:03.040Z,100317.55
2023-01-13T07:55:30.001Z,100317.81
2023-01-13T07:57:56.923Z,100310.72
2023-01-13T08:00:23.983Z,100305.91
2023-01-13T08:02:51.100Z,100306.05
2023-01-13T08:05:18.256Z,100307.27
2023-01-13T08:07:45.423Z,100307.42
2023-01-13T08:10:12.441Z,100313.43
2023-01-13T08:12:57.946Z,100318.75
2023-01-13T08:15:25.091Z,100318.59
2023-01-13T08:17:51.978Z,100313.02
2023-01-13T08:20:19.339Z,100311.10
2023-01-13T08:22:46.467Z,100312.58
2023-01-13T08:25:13.492Z,100309.83
2023-01-13T08:27:40.632Z,100307.65
2023-01-13T08:30:08.598Z,100304.61
2023-01-13T08:32:35.839Z,100304.30
2023-01-13T08:35:02.764Z,100295.61
2023-01-13T12:35:05.276Z,100195.29
2023-01-13T12:37:42.894Z,100206.09
2023-01-13T12:40:42.479Z,100209.38
2023-01-13T12:43:37.761Z,100212.30
2023-01-13T12:46:21.550Z,100213.13
2023-01-13T12:48:54.849Z,100209.00
2023-01-13T12:51:45.584Z,100206.66
2023-01-13T12:54:31.117Z,100210.22
2023-01-13T12:56:58.916Z,100210.86
2023-01-13T12:59:25.939Z,100217.77
2023-01-13T13:02:11.594Z,100215.77
2023-01-13T13:04:51.971Z,100215.58
2023-01-13T13:07:20.416Z,100219.02
2023-01-13T13:09:53.403Z,100222.46
2023-01-13T13:13:02.372Z,100221.13
2023-01-13T13:15:30.061Z,100229.00
2023-01-13T13:18:00.298Z,100225.04
2023-01-13T13:21:04.521Z,100220.84
2023-01-13T13:24:04.176Z,100223.20
2023-01-13T13:26:36.550Z,100222.00
2023-01-13T13:29:37.795Z,100226.14
2023-01-13T13:32:23.071Z,100222.20
2023-01-13T13:34:53.090Z,100222.10
2023-01-13T13:37:55.349Z,100213.27
2023-01-13T13:40:42.717Z,100213.58
2023-01-13T13:43:31.165Z,100215.38
2023-01-13T13:46:16.864Z,100215.36
2023-01-13T13:48:54.416Z,100217.06
2023-01-13T13:51:27.393Z,100217.51
2023-01-13T13:53:55.993Z,100210.63
2023-01-13T13:56:24.437Z,100212.14
2023-01-13T13:58:52.330Z,100214.20
2023-01-13T14:01:27.969Z,100215.17
2023-01-13T14:04:18.567Z,100217.65
2023-01-13T14:07:16.314Z,100216.63
2023-01-13T14:09:45.430Z,100221.53
2023-01-13T14:12:18.818Z,100218.13
2023-01-13T14:14:46.545Z,100213.73
2023-01-13T14:17:26.512Z,100209.30
2023-01-13T14:20:09.642Z,100209.73
2023-01-13T14:22:36.703Z,100209.35
2023-01-13T14:25:21.015Z,100207.33
2023-01-13T14:27:48.027Z,100203.83
2023-01-13T14:30:15.923Z,100202.33
2023-01-13T14:32:42.842Z,100199.80
2023-01-13T14:35:10.728Z,100201.59
2023-01-13T14:37:39.564Z,100199.58
2023-01-13T14:40:06.899Z,100190.70
2023-01-13T14:42:35.658Z,100191.66
2023-01-13T14:45:03.349Z,100190.45
2023-01-13T14:47:33.725Z,100189.35
2023-01-13T14:50:22.047Z,100194.77
2023-01-13T14:52:50.701Z,100192.12
2023-01-13T14:55:34.559Z,100192.91
2023-01-13T14:58:20.511Z,100186.23
2023-01-13T15:00:48.203Z,100187.83
2023-01-13T15:03:16.305Z,100185.55
2023-01-13T15:05:48.382Z,100182.94
2023-01-13T15:08:17.094Z,100181.34
2023-01-13T15:10:54.580Z,100179.33
2023-01-13T15:13:43.347Z,100178.39
2023-01-13T15:16:21.451Z,100174.63
2023-01-13T15:18:48.554Z,100173.98
2023-01-13T15:21:18.239Z,100176.30
2023-01-13T15:23:47.321Z,100180.47
2023-01-13T15:26:24.856Z,100180.90
2023-01-13T15:28:52.269Z,100185.69
2023-01-13T15:31:19.366Z,100186.78
2023-01-13T15:33:46.388Z,100180.73
2023-01-13T15:36:23.731Z,100178.06
2023-01-13T15:38:50.776Z,100179.65
2023-01-13T15:41:17.798Z,100187.89
2023-01-13T15:44:03.415Z,100185.80
2023-01-13T15:46:39.535Z,100183.52
2023-01-13T15:49:37.222Z,100181.11
2023-01-13T15:52:05.485Z,100179.35
2023-01-13T15:54:32.500Z,100176.61
2023-01-13T15:56:59.561Z,100171.23
2023-01-13T15:59:27.263Z,100176.36
2023-01-13T21:16:58.890Z,100190.81
2023-01-13T21:19:26.145Z,100200.66
2023-01-13T21:21:53.097Z,100201.55
2023-01-13T21:24:20.102Z,100198.55
2023-01-13T21:26:49.769Z,100199.80
2023-01-13T21:29:16.711Z,100196.54
2023-01-13T21:31:43.896Z,100199.02
2023-01-13T21:34:11.694Z,100196.58
2023-01-13T21:36:38.738Z,100195.42
2023-01-13T21:39:05.844Z,100198.59
2023-01-13T21:41:51.787Z,100202.30
2023-01-13T21:44:38.919Z,100198.59
2023-01-13T21:47:35.168Z,100194.77
2023-01-13T21:50:02.615Z,100196.60
2023-01-13T21:52:29.734Z,100195.33
2023-01-13T21:55:15.462Z,100192.01
2023-01-13T21:57:53.236Z,100190.22
2023-01-13T22:00:21.332Z,100183.98
2023-01-13T22:02:48.537Z,100190.34
2023-01-13T22:05:17.143Z,100185.58
2023-01-13T22:07:44.226Z,100181.76
2023-01-13T22:10:15.567Z,100180.13
2023-01-13T22:12:43.594Z,100179.21
2023-01-13T22:15:11.906Z,100172.70
2023-01-13T22:17:40.049Z,100173.98
2023-01-13T22:20:08.002Z,100176.38
2023-01-13T22:22:37.081Z,100175.61
2023-01-13T22:25:06.956Z,100174.55
2023-01-13T22:27:39.391Z,100172.35
2023-01-13T22:30:18.179Z,100170.11
2023-01-13T22:32:45.959Z,100165.78
2023-01-13T22:35:13.815Z,100169.96
2023-01-13T22:37:41.150Z,100173.33
2023-01-13T22:40:09.669Z,100168.27
2023-01-13T22:42:40.573Z,100163.02
2023-01-13T22:45:09.907Z,100168.49
2023-01-13T22:47:37.074Z,100162.48
2023-01-13T22:50:04.583Z,100164.20
2023-01-13T22:52:32.794Z,100163.21
2023-01-13T22:55:00.975Z,100164.14
2023-01-13T22:57:36.026Z,100160.58
2023-01-13T23:00:10.470Z,100162.71
2023-01-13T23:02:40.307Z,100167.13
2023-01-13T23:05:07.521Z,100167.46
2023-01-13T23:07:35.581Z,100165.64
2023-01-13T23:10:03.206Z,100164.62
2023-01-13T23:12:30.069Z,100162.15
2023-01-13T23:14:57.221Z,100161.83
2023-01-13T23:17:24.236Z,100158.46
2023-01-13T23:19:51.142Z,100162.51
2023-01-13T23:22:18.354Z,100161.98
2023-01-13T23:24:45.776Z,100161.20
2023-01-13T23:27:12.664Z,100161.39
2023-01-13T23:29:39.908Z,100163.09
2023-01-13T23:32:06.934Z,100161.48
2023-01-13T23:34:33.845Z,100160.96
2023-01-13T23:37:00.957Z,100157.30
2023-01-13T23:39:27.968Z,100157.49
2023-01-13T23:41:55.003Z,100154.52
2023-01-13T23:44:22.215Z,100148.73
2023-01-13T23:46:49.158Z,100149.49
2023-01-13T23:49:16.063Z,100149.66
2023-01-13T23:51:43.254Z,100148.50
2023-01-13T23:54:10.143Z,100150.44
2023-01-13T23:56:39.579Z,100154.14
2023-01-13T23:59:06.974Z,100155.31
